createdAt,value
2017-09-17T00:00:57.737Z,9.83
2017-09-17T00:01:58.031Z,9.83
2017-09-17T00:02:58.025Z,9.81
2017-09-17T00:03:57.706Z,9.86
2017-09-17T00:04:58.008Z,9.75
2017-09-17T00:05:58.001Z,9.71
2017-09-17T00:06:57.995Z,9.66
2017-09-17T00:07:57.978Z,9.74
2017-09-17T00:08:57.977Z,9.65
2017-09-17T00:09:57.967Z,9.66
2017-09-17T00:10:57.953Z,9.65
2017-09-17T00:11:57.943Z,9.69
2017-09-17T00:12:57.936Z,9.72
2017-09-17T00:13:57.925Z,9.65
2017-09-17T00:14:57.917Z,9.65
2017-09-17T00:15:57.599Z,9.64
2017-09-17T00:16:57.898Z,9.58
2017-09-17T00:17:57.896Z,9.58
2017-09-17T00:18:57.878Z,9.58
2017-09-17T00:19:57.880Z,9.54
2017-09-17T00:20:57.861Z,9.53
2017-09-17T00:21:57.543Z,9.54
2017-09-17T00:22:57.844Z,9.56
2017-09-17T00:23:57.850Z,9.56
2017-09-17T00:24:57.826Z,9.48
2017-09-17T00:25:57.823Z,9.54
2017-09-17T00:26:57.809Z,9.5
2017-09-17T00:27:57.799Z,9.47
2017-09-17T00:28:57.793Z,9.47
2017-09-17T00:29:57.784Z,9.47
2017-09-17T00:30:57.768Z,9.42
2017-09-17T00:31:57.764Z,9.46
2017-09-17T00:32:57.760Z,9.35
2017-09-17T00:33:57.742Z,9.46
2017-09-17T00:34:57.738Z,9.4
2017-09-17T00:35:57.731Z,9.38
2017-09-17T00:36:57.717Z,9.4
2017-09-17T00:37:57.707Z,9.35
2017-09-17T00:38:57.697Z,9.39
2017-09-17T00:39:57.690Z,9.38
2017-09-17T00:40:57.370Z,9.29
2017-09-17T00:41:57.672Z,9.29
2017-09-17T00:42:57.658Z,9.33
2017-09-17T00:43:57.652Z,9.32
2017-09-17T00:44:57.648Z,9.33
2017-09-17T00:45:57.633Z,9.33
2017-09-17T00:46:57.622Z,9.29
2017-09-17T00:47:57.620Z,9.32
2017-09-17T00:48:57.603Z,9.23
2017-09-17T00:49:57.597Z,9.26
2017-09-17T00:50:57.625Z,9.23
2017-09-17T00:51:57.582Z,9.24
2017-09-17T00:52:57.575Z,9.23
2017-09-17T00:53:57.561Z,9.21
2017-09-17T00:54:57.551Z,9.23
2017-09-17T00:55:57.545Z,9.15
2017-09-17T00:56:57.535Z,9.14
2017-09-17T00:57:57.541Z,9.23
2017-09-17T00:58:57.514Z,9.24
2017-09-17T00:59:57.504Z,9.18
2017-09-17T01:00:57.492Z,9.21
2017-09-17T01:01:57.489Z,9.15
2017-09-17T01:02:57.479Z,9.18
2017-09-17T01:03:57.466Z,9.14
2017-09-17T01:04:57.457Z,9.17
2017-09-17T01:05:57.445Z,9.02
2017-09-17T01:06:57.433Z,9.04
2017-09-17T01:07:57.118Z,9.13
2017-09-17T01:08:57.416Z,9.04
2017-09-17T01:09:57.409Z,9.1
2017-09-17T01:10:57.093Z,9.02
2017-09-17T01:11:57.082Z,9.02
2017-09-17T01:12:57.384Z,9.04
2017-09-17T01:13:57.376Z,9.01
2017-09-17T01:14:57.367Z,8.96
2017-09-17T01:15:57.601Z,8.98
2017-09-17T01:16:57.034Z,8.98
2017-09-17T01:17:57.026Z,9.02
2017-09-17T01:18:57.018Z,9.01
2017-09-17T01:19:57.317Z,8.96
2017-09-17T01:20:57.307Z,8.89
2017-09-17T01:21:57.300Z,8.94
2017-09-17T01:22:57.294Z,8.87
2017-09-17T01:23:57.277Z,8.94
2017-09-17T01:24:57.268Z,8.87
2017-09-17T01:25:57.255Z,8.92
2017-09-17T01:26:57.252Z,8.89
2017-09-17T01:27:57.240Z,8.94
2017-09-17T01:28:57.239Z,8.95
2017-09-17T01:29:56.910Z,8.95
2017-09-17T01:30:57.212Z,8.8
2017-09-17T01:31:57.202Z,8.83
2017-09-17T01:32:57.196Z,8.87
2017-09-17T01:33:56.876Z,8.95
2017-09-17T01:34:56.866Z,8.95
2017-09-17T01:35:57.165Z,8.89
2017-09-17T01:36:57.155Z,8.89
2017-09-17T01:37:57.142Z,8.92
2017-09-17T01:38:57.143Z,8.89
2017-09-17T01:39:57.123Z,8.86
2017-09-17T01:40:57.113Z,8.81
2017-09-17T01:41:57.106Z,8.83
2017-09-17T01:42:56.789Z,8.79
2017-09-17T01:43:57.092Z,8.77
2017-09-17T01:44:56.769Z,8.77
2017-09-17T01:45:57.069Z,8.77
2017-09-17T01:46:56.747Z,8.74
2017-09-17T01:47:57.054Z,8.77
2017-09-17T01:48:57.034Z,8.76
2017-09-17T01:49:57.033Z,8.81
2017-09-17T01:50:56.712Z,8.79
2017-09-17T01:51:57.011Z,8.77
2017-09-17T01:52:57.002Z,8.76
2017-09-17T01:53:56.993Z,8.73
2017-09-17T01:54:56.986Z,8.8
2017-09-17T01:55:56.971Z,8.81
2017-09-17T01:56:56.653Z,8.83
2017-09-17T01:57:56.642Z,8.87
2017-09-17T01:58:56.634Z,8.74
2017-09-17T01:59:56.936Z,8.71
2017-09-17T02:00:56.926Z,8.71
2017-09-17T02:01:56.913Z,8.77
2017-09-17T02:02:56.595Z,8.8
2017-09-17T02:03:56.588Z,8.7
2017-09-17T02:04:56.885Z,8.76
2017-09-17T02:05:56.876Z,8.76
2017-09-17T02:06:56.869Z,8.79
2017-09-17T02:07:56.549Z,8.74
2017-09-17T02:08:56.847Z,8.76
2017-09-17T02:09:56.834Z,8.65
2017-09-17T02:10:56.830Z,8.68
2017-09-17T02:11:56.506Z,8.65
2017-09-17T02:12:56.805Z,8.73
2017-09-17T02:13:56.799Z,8.71
2017-09-17T02:14:56.171Z,8.63
2017-09-17T02:15:56.468Z,8.66
2017-09-17T02:16:56.768Z,8.61
2017-09-17T02:17:56.763Z,8.65
2017-09-17T02:18:56.750Z,8.63
2017-09-17T02:19:56.433Z,8.61
2017-09-17T02:20:56.730Z,8.53
2017-09-17T02:21:56.408Z,8.55
2017-09-17T02:22:56.714Z,8.59
2017-09-17T02:23:56.704Z,8.56
2017-09-17T02:24:56.691Z,8.53
2017-09-17T02:25:56.681Z,8.56
2017-09-17T02:26:56.674Z,8.55
2017-09-17T02:27:56.666Z,8.53
2017-09-17T02:28:56.650Z,8.5
2017-09-17T02:29:56.647Z,8.5
2017-09-17T02:30:56.643Z,8.48
2017-09-17T02:31:56.623Z,8.48
2017-09-17T02:32:56.616Z,8.55
2017-09-17T02:33:56.296Z,8.53
2017-09-17T02:34:56.597Z,8.55
2017-09-17T02:35:56.584Z,8.5
2017-09-17T02:36:56.267Z,8.47
2017-09-17T02:37:56.570Z,8.38
2017-09-17T02:38:56.566Z,8.37
2017-09-17T02:39:56.238Z,8.47
2017-09-17T02:40:56.538Z,8.55
2017-09-17T02:41:56.219Z,8.37
2017-09-17T02:42:56.210Z,8.5
2017-09-17T02:43:56.507Z,8.41
2017-09-17T02:44:56.495Z,8.43
2017-09-17T02:45:56.486Z,8.38
2017-09-17T02:46:56.486Z,8.43
2017-09-17T02:47:56.469Z,8.44
2017-09-17T02:48:56.148Z,8.52
2017-09-17T02:49:56.452Z,8.44
2017-09-17T02:50:56.125Z,8.47
2017-09-17T02:51:56.427Z,8.4
2017-09-17T02:52:56.421Z,8.47
2017-09-17T02:53:56.415Z,8.52
2017-09-17T02:54:56.404Z,8.36
2017-09-17T02:55:56.082Z,8.34
2017-09-17T02:56:56.374Z,8.36
2017-09-17T02:57:56.370Z,8.4
2017-09-17T02:58:56.362Z,8.36
2017-09-17T02:59:56.350Z,8.37
2017-09-17T03:00:56.346Z,8.36
2017-09-17T03:01:56.025Z,8.3
2017-09-17T03:02:56.318Z,8.43
2017-09-17T03:03:56.305Z,8.34
2017-09-17T03:04:56.304Z,8.38
2017-09-17T03:05:56.290Z,8.29
2017-09-17T03:06:56.279Z,8.33
2017-09-17T03:07:56.273Z,8.36
2017-09-17T03:08:55.952Z,8.36
2017-09-17T03:09:56.252Z,8.36
2017-09-17T03:10:56.237Z,8.4
2017-09-17T03:11:56.231Z,8.33
2017-09-17T03:12:55.909Z,8.3
2017-09-17T03:13:56.212Z,8.29
2017-09-17T03:14:56.209Z,8.33
2017-09-17T03:15:56.227Z,8.38
2017-09-17T03:16:56.179Z,8.37
2017-09-17T03:17:56.168Z,8.28
2017-09-17T03:18:56.160Z,8.29
2017-09-17T03:19:56.153Z,8.26
2017-09-17T03:20:55.831Z,8.34
2017-09-17T03:21:56.131Z,8.33
2017-09-17T03:22:58.147Z,8.33
2017-09-17T03:23:56.108Z,8.33
2017-09-17T03:24:56.102Z,8.29
2017-09-17T03:25:55.783Z,8.25
2017-09-17T03:26:56.081Z,8.33
2017-09-17T03:27:56.071Z,8.33
2017-09-17T03:28:56.061Z,8.23
2017-09-17T03:29:55.746Z,8.34
2017-09-17T03:30:56.044Z,8.2
2017-09-17T03:31:56.026Z,8.23
2017-09-17T03:32:56.025Z,8.2
2017-09-17T03:33:56.020Z,8.19
2017-09-17T03:34:55.688Z,8.25
2017-09-17T03:35:55.994Z,8.19
2017-09-17T03:36:55.673Z,8.11
2017-09-17T03:37:55.661Z,8.25
2017-09-17T03:38:55.964Z,8.19
2017-09-17T03:39:55.949Z,8.26
2017-09-17T03:40:55.942Z,8.25
2017-09-17T03:41:55.929Z,8.1
2017-09-17T03:42:55.920Z,8.25
2017-09-17T03:43:55.909Z,8.19
2017-09-17T03:44:55.902Z,8.15
2017-09-17T03:45:55.887Z,8.12
2017-09-17T03:46:55.882Z,8.23
2017-09-17T03:47:55.900Z,8.28
2017-09-17T03:48:55.864Z,8.33
2017-09-17T03:49:55.853Z,8.2
2017-09-17T03:50:55.850Z,8.2
2017-09-17T03:51:55.835Z,8.23
2017-09-17T03:52:55.509Z,8.33
2017-09-17T03:53:55.805Z,8.23
2017-09-17T03:54:55.803Z,8.19
2017-09-17T03:55:55.789Z,8.19
2017-09-17T03:56:55.787Z,8.25
2017-09-17T03:57:55.774Z,8.19
2017-09-17T03:58:55.451Z,8.22
2017-09-17T03:59:55.752Z,8.1
2017-09-17T04:00:55.745Z,8.22
2017-09-17T04:01:55.725Z,8.11
2017-09-17T04:02:55.727Z,8.22
2017-09-17T04:03:55.714Z,8.25
2017-09-17T04:04:55.704Z,8.19
2017-09-17T04:05:55.689Z,8.15
2017-09-17T04:06:55.686Z,8.25
2017-09-17T04:07:55.666Z,8.11
2017-09-17T04:08:55.352Z,8.25
2017-09-17T04:09:55.648Z,8.28
2017-09-17T04:10:55.647Z,8.3
2017-09-17T04:11:55.321Z,8.25
2017-09-17T04:12:55.329Z,8.23
2017-09-17T04:13:55.300Z,8.19
2017-09-17T04:14:55.292Z,8.23
2017-09-17T04:15:55.310Z,8.26
2017-09-17T04:16:55.581Z,8.15
2017-09-17T04:17:55.569Z,8.12
2017-09-17T04:18:55.559Z,8.19
2017-09-17T04:19:55.563Z,8.16
2017-09-17T04:20:55.544Z,8.11
2017-09-17T04:21:55.219Z,8.12
2017-09-17T04:22:55.525Z,8.15
2017-09-17T04:23:55.507Z,8.11
2017-09-17T04:24:55.503Z,8.16
2017-09-17T04:25:55.176Z,8.19
2017-09-17T04:26:55.481Z,8.16
2017-09-17T04:27:55.469Z,8.19
2017-09-17T04:28:55.463Z,8.18
2017-09-17T04:29:55.450Z,8.11
2017-09-17T04:30:55.129Z,8.15
2017-09-17T04:31:55.426Z,8.12
2017-09-17T04:32:55.112Z,8.01
2017-09-17T04:33:55.104Z,8
2017-09-17T04:34:55.399Z,8
2017-09-17T04:35:55.390Z,8.08
2017-09-17T04:36:55.377Z,8.04
2017-09-17T04:37:55.059Z,8.04
2017-09-17T04:38:55.359Z,8.11
2017-09-17T04:39:55.351Z,8.04
2017-09-17T04:40:55.026Z,8.12
2017-09-17T04:41:55.336Z,8.12
2017-09-17T04:42:55.319Z,8.16
2017-09-17T04:43:55.311Z,8.18
2017-09-17T04:44:54.986Z,8.12
2017-09-17T04:45:55.291Z,8.02
2017-09-17T04:46:55.275Z,8.2
2017-09-17T04:47:55.267Z,8.16
2017-09-17T04:48:55.256Z,8.18
2017-09-17T04:49:55.248Z,8.22
2017-09-17T04:50:55.233Z,8.25
2017-09-17T04:51:55.225Z,8.25
2017-09-17T04:52:55.217Z,8.18
2017-09-17T04:53:55.207Z,8.2
2017-09-17T04:54:55.197Z,8.19
2017-09-17T04:55:55.186Z,8.33
2017-09-17T04:56:55.174Z,8.33
2017-09-17T04:57:55.167Z,8.33
2017-09-17T04:58:55.158Z,8.36
2017-09-17T04:59:55.146Z,8.36
2017-09-17T05:00:55.131Z,8.36
2017-09-17T05:01:55.135Z,8.29
2017-09-17T05:02:55.116Z,8.29
2017-09-17T05:03:55.106Z,8.34
2017-09-17T05:04:55.095Z,8.37
2017-09-17T05:05:54.778Z,8.38
2017-09-17T05:06:55.075Z,8.44
2017-09-17T05:07:55.067Z,8.48
2017-09-17T05:08:54.780Z,8.45
2017-09-17T05:09:55.076Z,8.38
2017-09-17T05:10:55.039Z,8.43
2017-09-17T05:11:55.025Z,8.48
2017-09-17T05:12:55.018Z,8.55
2017-09-17T05:13:55.006Z,8.45
2017-09-17T05:14:54.689Z,8.55
2017-09-17T05:15:54.988Z,8.68
2017-09-17T05:16:54.977Z,8.7
2017-09-17T05:17:54.659Z,8.74
2017-09-17T05:18:54.989Z,8.87
2017-09-17T05:19:54.640Z,8.98
2017-09-17T05:20:54.936Z,8.95
2017-09-17T05:21:54.922Z,9.17
2017-09-17T05:22:54.610Z,9.15
2017-09-17T05:23:54.600Z,9.24
2017-09-17T05:24:54.589Z,9.38
2017-09-17T05:25:54.891Z,9.42
2017-09-17T05:26:54.571Z,9.48
2017-09-17T05:27:54.872Z,9.61
2017-09-17T05:28:54.868Z,9.71
2017-09-17T05:29:54.852Z,9.64
2017-09-17T05:30:54.845Z,9.86
2017-09-17T05:31:54.529Z,9.91
2017-09-17T05:32:54.824Z,10.11
2017-09-17T05:33:54.817Z,10.12
2017-09-17T05:34:54.810Z,10.17
2017-09-17T05:35:54.801Z,10.2
2017-09-17T05:36:54.789Z,10.3
2017-09-17T05:37:54.785Z,10.38
2017-09-17T05:38:54.775Z,10.48
2017-09-17T05:39:54.767Z,10.51
2017-09-17T05:40:54.758Z,10.63
2017-09-17T05:41:54.745Z,10.61
2017-09-17T05:42:54.432Z,10.73
2017-09-17T05:43:54.426Z,10.82
2017-09-17T05:44:54.722Z,10.94
2017-09-17T05:45:54.100Z,10.97
2017-09-17T05:46:54.089Z,11.04
2017-09-17T05:47:54.705Z,11.11
2017-09-17T05:48:54.381Z,11.24
2017-09-17T05:49:54.684Z,11.17
2017-09-17T05:50:54.365Z,11.21
2017-09-17T05:51:54.671Z,11.32
2017-09-17T05:52:54.658Z,11.39
2017-09-17T05:53:54.654Z,11.39
2017-09-17T05:54:54.644Z,11.54
2017-09-17T05:55:54.637Z,11.54
2017-09-17T05:56:54.632Z,11.76
2017-09-17T05:57:54.636Z,11.79
2017-09-17T05:58:54.614Z,11.96
2017-09-17T05:59:54.300Z,12.2
2017-09-17T06:00:54.291Z,12.29
2017-09-17T06:01:54.592Z,12.41
2017-09-17T06:02:54.591Z,12.53
2017-09-17T06:03:54.582Z,12.74
2017-09-17T06:04:54.581Z,13
2017-09-17T06:05:54.571Z,13.03
2017-09-17T06:06:54.565Z,13.29
2017-09-17T06:07:54.572Z,13.33
2017-09-17T06:08:54.242Z,13.55
2017-09-17T06:09:54.545Z,13.75
2017-09-17T06:10:53.921Z,13.87
2017-09-17T06:11:54.540Z,14.07
2017-09-17T06:12:54.233Z,14.32
2017-09-17T06:13:54.520Z,14.46
2017-09-17T06:14:54.521Z,14.57
2017-09-17T06:15:54.514Z,14.83
2017-09-17T06:16:54.512Z,15.02
2017-09-17T06:17:54.501Z,15.25
2017-09-17T06:18:54.500Z,15.34
2017-09-17T06:19:54.498Z,15.62
2017-09-17T06:20:54.495Z,15.82
2017-09-17T06:21:54.490Z,16
2017-09-17T06:22:54.485Z,16.23
2017-09-17T06:23:54.176Z,16.56
2017-09-17T06:24:54.485Z,16.71
2017-09-17T06:25:54.477Z,16.91
2017-09-17T06:26:54.163Z,17.14
2017-09-17T06:27:54.466Z,17.28
2017-09-17T06:28:54.155Z,17.41
2017-09-17T06:29:54.461Z,17.62
2017-09-17T06:30:54.461Z,17.66
2017-09-17T06:31:54.452Z,17.84
2017-09-17T06:32:54.458Z,17.9
2017-09-17T06:33:54.451Z,17.99
2017-09-17T06:34:54.453Z,18.08
2017-09-17T06:35:54.450Z,18.21
2017-09-17T06:36:54.461Z,18.2
2017-09-17T06:37:54.451Z,18.26
2017-09-17T06:38:54.135Z,18.33
2017-09-17T06:39:54.445Z,18.54
2017-09-17T06:40:54.449Z,18.54
2017-09-17T06:41:54.443Z,18.55
2017-09-17T06:42:54.450Z,18.81
2017-09-17T06:43:54.438Z,18.81
2017-09-17T06:44:54.436Z,18.95
2017-09-17T06:45:54.438Z,19.04
2017-09-17T06:46:54.434Z,19
2017-09-17T06:47:53.815Z,18.99
2017-09-17T06:48:54.124Z,19.06
2017-09-17T06:49:54.124Z,19.16
2017-09-17T06:50:54.427Z,19.02
2017-09-17T06:51:54.122Z,19.1
2017-09-17T06:52:54.120Z,19.16
2017-09-17T06:53:54.435Z,19.13
2017-09-17T06:54:54.119Z,19.1
2017-09-17T06:55:54.436Z,19.13
2017-09-17T06:56:54.428Z,19.19
2017-09-17T06:57:54.115Z,19.22
2017-09-17T06:58:54.429Z,19.29
2017-09-17T06:59:54.425Z,19.44
2017-09-17T07:00:54.427Z,19.39
2017-09-17T07:01:54.430Z,19.46
2017-09-17T07:02:54.426Z,19.46
2017-09-17T07:03:54.425Z,19.58
2017-09-17T07:04:54.417Z,19.59
2017-09-17T07:05:54.428Z,19.63
2017-09-17T07:06:54.421Z,19.62
2017-09-17T07:07:54.432Z,19.61
2017-09-17T07:08:54.111Z,19.58
2017-09-17T07:09:54.423Z,19.56
2017-09-17T07:10:54.422Z,19.61
2017-09-17T07:11:54.426Z,19.66
2017-09-17T07:12:54.420Z,19.63
2017-09-17T07:13:54.423Z,19.76
2017-09-17T07:14:54.435Z,19.69
2017-09-17T07:15:54.427Z,19.65
2017-09-17T07:16:54.422Z,19.61
2017-09-17T07:17:54.420Z,19.62
2017-09-17T07:18:54.427Z,19.62
2017-09-17T07:19:54.420Z,19.61
2017-09-17T07:20:54.425Z,19.55
2017-09-17T07:21:54.417Z,19.5
2017-09-17T07:22:54.423Z,19.41
2017-09-17T07:23:54.421Z,19.31
2017-09-17T07:24:54.416Z,19.39
2017-09-17T07:25:54.420Z,19.33
2017-09-17T07:26:54.446Z,19.37
2017-09-17T07:27:54.416Z,19.25
2017-09-17T07:28:54.415Z,19.23
2017-09-17T07:29:54.412Z,19.25
2017-09-17T07:30:54.417Z,19.18
2017-09-17T07:31:54.412Z,19.14
2017-09-17T07:32:54.416Z,19.18
2017-09-17T07:33:54.412Z,19.11
2017-09-17T07:34:54.408Z,19.18
2017-09-17T07:35:54.098Z,19.14
2017-09-17T07:36:54.410Z,19.25
2017-09-17T07:37:54.411Z,19.23
2017-09-17T07:38:54.100Z,19.26
2017-09-17T07:39:54.406Z,19.31
2017-09-17T07:40:54.404Z,19.32
2017-09-17T07:41:54.099Z,19.29
2017-09-17T07:42:54.403Z,19.36
2017-09-17T07:43:54.406Z,19.4
2017-09-17T07:44:54.402Z,19.5
2017-09-17T07:45:54.398Z,19.5
2017-09-17T07:46:54.095Z,19.61
2017-09-17T07:47:54.598Z,19.59
2017-09-17T07:48:54.400Z,19.66
2017-09-17T07:49:54.405Z,19.62
2017-09-17T07:50:54.399Z,19.68
2017-09-17T07:51:54.398Z,19.69
2017-09-17T07:52:54.399Z,19.76
2017-09-17T07:53:54.401Z,19.83
2017-09-17T07:54:54.093Z,19.77
2017-09-17T07:55:54.083Z,19.83
2017-09-17T07:56:54.087Z,19.81
2017-09-17T07:57:54.391Z,19.8
2017-09-17T07:58:54.084Z,19.77
2017-09-17T07:59:54.392Z,19.74
2017-09-17T08:00:54.391Z,19.71
2017-09-17T08:01:54.393Z,19.66
2017-09-17T08:02:54.394Z,19.55
2017-09-17T08:03:54.401Z,19.48
2017-09-17T08:04:54.392Z,19.48
2017-09-17T08:05:54.389Z,19.59
2017-09-17T08:06:54.388Z,19.54
2017-09-17T08:07:54.391Z,19.54
2017-09-17T08:08:54.078Z,19.54
2017-09-17T08:09:54.392Z,19.44
2017-09-17T08:10:54.390Z,19.41
2017-09-17T08:11:54.075Z,19.4
2017-09-17T08:12:54.384Z,19.29
2017-09-17T08:13:54.382Z,19.25
2017-09-17T08:14:54.393Z,19.28
2017-09-17T08:15:54.406Z,19.23
2017-09-17T08:16:54.376Z,19.31
2017-09-17T08:17:54.379Z,19.18
2017-09-17T08:18:54.379Z,19.18
2017-09-17T08:19:53.755Z,19.18
2017-09-17T08:20:54.064Z,19.19
2017-09-17T08:21:54.369Z,19.18
2017-09-17T08:22:54.388Z,19.13
2017-09-17T08:23:54.060Z,19.14
2017-09-17T08:24:54.360Z,19.1
2017-09-17T08:25:54.363Z,19.1
2017-09-17T08:26:54.362Z,19.02
2017-09-17T08:27:54.358Z,19.04
2017-09-17T08:28:54.365Z,19.04
2017-09-17T08:29:54.046Z,18.98
2017-09-17T08:30:54.349Z,19.02
2017-09-17T08:31:54.350Z,18.98
2017-09-17T08:32:54.349Z,19
2017-09-17T08:33:54.343Z,18.94
2017-09-17T08:34:54.350Z,18.98
2017-09-17T08:35:54.341Z,19.06
2017-09-17T08:36:54.345Z,18.98
2017-09-17T08:37:54.028Z,18.94
2017-09-17T08:38:54.025Z,18.92
2017-09-17T08:39:54.334Z,18.88
2017-09-17T08:40:54.331Z,18.82
2017-09-17T08:41:54.326Z,18.81
2017-09-17T08:42:54.328Z,18.8
2017-09-17T08:43:54.329Z,18.84
2017-09-17T08:44:54.008Z,18.82
2017-09-17T08:45:54.320Z,18.84
2017-09-17T08:46:54.321Z,18.8
2017-09-17T08:47:54.256Z,18.88
2017-09-17T08:48:54.309Z,18.9
2017-09-17T08:49:54.001Z,18.99
2017-09-17T08:50:54.309Z,19.04
2017-09-17T08:51:54.307Z,19.06
2017-09-17T08:52:54.300Z,19.13
2017-09-17T08:53:54.307Z,19.28
2017-09-17T08:54:54.297Z,19.25
2017-09-17T08:55:54.291Z,19.29
2017-09-17T08:56:54.292Z,19.41
2017-09-17T08:57:54.320Z,19.46
2017-09-17T08:58:54.289Z,19.56
2017-09-17T08:59:54.284Z,19.73
2017-09-17T09:00:54.314Z,19.69
2017-09-17T09:01:54.283Z,19.76
2017-09-17T09:02:53.970Z,19.69
2017-09-17T09:03:53.968Z,19.69
2017-09-17T09:04:53.965Z,19.74
2017-09-17T09:05:54.283Z,19.69
2017-09-17T09:06:53.961Z,19.81
2017-09-17T09:07:53.981Z,19.86
2017-09-17T09:08:54.267Z,19.99
2017-09-17T09:09:54.266Z,19.87
2017-09-17T09:10:54.264Z,19.88
2017-09-17T09:11:54.260Z,19.86
2017-09-17T09:12:54.265Z,19.94
2017-09-17T09:13:53.951Z,19.8
2017-09-17T09:14:54.253Z,19.91
2017-09-17T09:15:54.252Z,19.88
2017-09-17T09:16:54.253Z,19.92
2017-09-17T09:17:54.249Z,19.86
2017-09-17T09:18:54.250Z,19.77
2017-09-17T09:19:54.247Z,19.68
2017-09-17T09:20:54.243Z,19.77
2017-09-17T09:21:54.241Z,19.78
2017-09-17T09:22:54.244Z,19.86
2017-09-17T09:23:53.933Z,19.95
2017-09-17T09:24:54.236Z,19.84
2017-09-17T09:25:54.234Z,19.73
2017-09-17T09:26:54.229Z,19.84
2017-09-17T09:27:54.230Z,19.88
2017-09-17T09:28:53.923Z,19.88
2017-09-17T09:29:54.230Z,20.02
2017-09-17T09:30:54.225Z,20.06
2017-09-17T09:31:53.917Z,20.11
2017-09-17T09:32:54.221Z,20.26
2017-09-17T09:33:54.220Z,20.23
2017-09-17T09:34:54.223Z,20.28
2017-09-17T09:35:54.214Z,20.39
2017-09-17T09:36:54.214Z,20.38
2017-09-17T09:37:54.217Z,20.39
2017-09-17T09:38:54.214Z,20.39
2017-09-17T09:39:54.211Z,20.35
2017-09-17T09:40:54.247Z,20.32
2017-09-17T09:41:54.208Z,20.26
2017-09-17T09:42:54.205Z,20.23
2017-09-17T09:43:53.931Z,20.28
2017-09-17T09:44:54.203Z,20.23
2017-09-17T09:45:54.201Z,20.2
2017-09-17T09:46:54.205Z,20.21
2017-09-17T09:47:54.190Z,20.29
2017-09-17T09:48:54.195Z,20.31
2017-09-17T09:49:54.194Z,20.26
2017-09-17T09:50:54.191Z,20.36
2017-09-17T09:51:54.192Z,20.39
2017-09-17T09:52:53.880Z,20.41
2017-09-17T09:53:53.876Z,20.52
2017-09-17T09:54:54.183Z,20.5
2017-09-17T09:55:54.183Z,20.52
2017-09-17T09:56:53.874Z,20.43
2017-09-17T09:57:54.184Z,20.54
2017-09-17T09:58:54.177Z,20.54
2017-09-17T09:59:54.181Z,20.38
2017-09-17T10:00:53.865Z,20.35
2017-09-17T10:01:54.167Z,20.36
2017-09-17T10:02:54.170Z,20.38
2017-09-17T10:03:53.858Z,20.32
2017-09-17T10:04:54.168Z,20.31
2017-09-17T10:05:53.852Z,20.28
2017-09-17T10:06:53.852Z,20.31
2017-09-17T10:07:54.158Z,20.26
2017-09-17T10:08:54.158Z,20.2
2017-09-17T10:09:53.848Z,20.26
2017-09-17T10:10:53.845Z,20.24
2017-09-17T10:11:53.532Z,20.23
2017-09-17T10:12:53.837Z,20.23
2017-09-17T10:13:54.147Z,20.28
2017-09-17T10:14:54.145Z,20.26
2017-09-17T10:15:53.837Z,20.32
2017-09-17T10:16:54.137Z,20.29
2017-09-17T10:17:54.143Z,20.28
2017-09-17T10:18:54.136Z,20.29
2017-09-17T10:19:54.133Z,20.28
2017-09-17T10:20:54.135Z,20.28
2017-09-17T10:21:54.129Z,20.31
2017-09-17T10:22:53.814Z,20.26
2017-09-17T10:23:54.128Z,20.2
2017-09-17T10:24:54.126Z,20.21
2017-09-17T10:25:54.126Z,20.1
2017-09-17T10:26:54.117Z,20.06
2017-09-17T10:27:54.114Z,20.14
2017-09-17T10:28:54.115Z,20.05
2017-09-17T10:29:54.113Z,20.02
2017-09-17T10:30:54.109Z,20.1
2017-09-17T10:31:54.114Z,19.95
2017-09-17T10:32:54.105Z,19.92
2017-09-17T10:33:54.102Z,19.88
2017-09-17T10:34:54.102Z,19.94
2017-09-17T10:35:54.092Z,19.87
2017-09-17T10:36:54.098Z,19.83
2017-09-17T10:37:54.098Z,19.88
2017-09-17T10:38:54.091Z,19.92
2017-09-17T10:39:54.088Z,19.83
2017-09-17T10:40:54.088Z,19.81
2017-09-17T10:41:54.080Z,19.86
2017-09-17T10:42:54.075Z,19.83
2017-09-17T10:43:54.075Z,19.87
2017-09-17T10:44:54.108Z,19.86
2017-09-17T10:45:54.074Z,19.88
2017-09-17T10:46:53.763Z,19.88
2017-09-17T10:47:54.066Z,19.84
2017-09-17T10:48:54.068Z,19.81
2017-09-17T10:49:54.063Z,19.8
2017-09-17T10:50:53.757Z,19.81
2017-09-17T10:51:53.436Z,19.86
2017-09-17T10:52:54.057Z,19.83
2017-09-17T10:53:54.052Z,19.95
2017-09-17T10:54:54.050Z,19.81
2017-09-17T10:55:54.048Z,19.77
2017-09-17T10:56:54.045Z,19.91
2017-09-17T10:57:54.044Z,19.8
2017-09-17T10:58:54.041Z,19.71
2017-09-17T10:59:53.415Z,19.73
2017-09-17T11:00:54.041Z,19.8
2017-09-17T11:01:54.028Z,19.68
2017-09-17T11:02:54.031Z,19.68
2017-09-17T11:03:54.022Z,19.44
2017-09-17T11:04:53.711Z,19.47
2017-09-17T11:05:53.709Z,19.36
2017-09-17T11:06:53.706Z,19.47
2017-09-17T11:07:54.013Z,19.48
2017-09-17T11:08:53.702Z,19.4
2017-09-17T11:09:54.008Z,19.48
2017-09-17T11:10:53.694Z,19.46
2017-09-17T11:11:53.694Z,19.44
2017-09-17T11:12:53.997Z,19.41
2017-09-17T11:13:53.996Z,19.44
2017-09-17T11:14:53.679Z,19.43
2017-09-17T11:15:53.678Z,19.4
2017-09-17T11:16:53.679Z,19.37
2017-09-17T11:17:53.986Z,19.41
2017-09-17T11:18:53.977Z,19.31
2017-09-17T11:19:53.979Z,19.31
2017-09-17T11:20:53.973Z,19.31
2017-09-17T11:21:53.971Z,19.37
2017-09-17T11:22:53.969Z,19.43
2017-09-17T11:23:53.657Z,19.44
2017-09-17T11:24:53.658Z,19.46
2017-09-17T11:25:53.965Z,19.44
2017-09-17T11:26:53.966Z,19.47
2017-09-17T11:27:53.645Z,19.5
2017-09-17T11:28:53.953Z,19.47
2017-09-17T11:29:53.636Z,19.48
2017-09-17T11:30:53.638Z,19.55
2017-09-17T11:31:53.943Z,19.55
2017-09-17T11:32:53.633Z,19.65
2017-09-17T11:33:53.626Z,19.62
2017-09-17T11:34:53.621Z,19.68
2017-09-17T11:35:53.619Z,19.78
2017-09-17T11:36:53.931Z,19.8
2017-09-17T11:37:53.613Z,19.74
2017-09-17T11:38:53.919Z,19.71
2017-09-17T11:39:53.609Z,19.81
2017-09-17T11:40:53.603Z,19.81
2017-09-17T11:41:53.917Z,19.87
2017-09-17T11:42:53.599Z,19.87
2017-09-17T11:43:53.904Z,19.91
2017-09-17T11:44:53.901Z,19.86
2017-09-17T11:45:53.592Z,19.95
2017-09-17T11:46:53.901Z,19.94
2017-09-17T11:47:53.890Z,19.91
2017-09-17T11:48:53.582Z,20.06
2017-09-17T11:49:53.580Z,20.17
2017-09-17T11:50:53.889Z,20.23
2017-09-17T11:51:53.885Z,20.23
2017-09-17T11:52:53.574Z,20.33
2017-09-17T11:53:53.570Z,20.47
2017-09-17T11:54:53.565Z,20.55
2017-09-17T11:55:53.562Z,20.62
2017-09-17T11:56:53.881Z,20.72
2017-09-17T11:57:53.865Z,20.74
2017-09-17T11:58:53.559Z,20.82
2017-09-17T11:59:53.552Z,20.89
2017-09-17T12:00:53.554Z,20.98
2017-09-17T12:01:53.549Z,21.1
2017-09-17T12:02:53.549Z,21.09
2017-09-17T12:03:53.851Z,21.12
2017-09-17T12:04:53.546Z,21.29
2017-09-17T12:05:53.539Z,21.34
2017-09-17T12:06:53.538Z,21.42
2017-09-17T12:07:53.537Z,21.44
2017-09-17T12:08:53.843Z,21.47
2017-09-17T12:09:53.528Z,21.53
2017-09-17T12:10:53.530Z,21.54
2017-09-17T12:11:53.525Z,21.56
2017-09-17T12:12:53.219Z,21.37
2017-09-17T12:13:53.525Z,21.38
2017-09-17T12:14:53.522Z,21.14
2017-09-17T12:15:53.833Z,21.16
2017-09-17T12:16:53.531Z,21.12
2017-09-17T12:17:53.515Z,21.06
2017-09-17T12:18:53.513Z,21.14
2017-09-17T12:19:53.515Z,21.16
2017-09-17T12:20:53.511Z,21.14
2017-09-17T12:21:53.510Z,21.14
2017-09-17T12:22:53.509Z,20.99
2017-09-17T12:23:53.817Z,20.92
2017-09-17T12:24:53.823Z,20.82
2017-09-17T12:25:53.808Z,20.79
2017-09-17T12:26:53.812Z,20.84
2017-09-17T12:27:53.809Z,20.87
2017-09-17T12:28:53.804Z,20.99
2017-09-17T12:29:53.804Z,21.09
2017-09-17T12:30:53.802Z,21.16
2017-09-17T12:31:53.508Z,21.14
2017-09-17T12:32:53.793Z,21.22
2017-09-17T12:33:53.492Z,21.17
2017-09-17T12:34:53.791Z,21.14
2017-09-17T12:35:53.801Z,21.16
2017-09-17T12:36:53.794Z,21.14
2017-09-17T12:37:53.789Z,21.13
2017-09-17T12:38:53.792Z,21.07
2017-09-17T12:39:53.787Z,20.98
2017-09-17T12:40:53.786Z,20.87
2017-09-17T12:41:53.784Z,20.91
2017-09-17T12:42:53.481Z,20.85
2017-09-17T12:43:53.780Z,20.89
2017-09-17T12:44:53.784Z,20.91
2017-09-17T12:45:53.776Z,20.85
2017-09-17T12:46:53.468Z,20.85
2017-09-17T12:47:53.781Z,20.8
2017-09-17T12:48:53.777Z,20.84
2017-09-17T12:49:53.462Z,20.79
2017-09-17T12:50:53.772Z,20.87
2017-09-17T12:51:53.770Z,20.95
2017-09-17T12:52:53.765Z,20.92
2017-09-17T12:53:53.766Z,20.82
2017-09-17T12:54:53.764Z,20.95
2017-09-17T12:55:53.760Z,20.95
2017-09-17T12:56:53.761Z,20.97
2017-09-17T12:57:53.760Z,20.97
2017-09-17T12:58:53.758Z,20.92
2017-09-17T12:59:53.750Z,20.88
2017-09-17T13:00:53.449Z,20.79
2017-09-17T13:01:53.448Z,20.82
2017-09-17T13:02:53.748Z,20.67
2017-09-17T13:03:53.438Z,20.66
2017-09-17T13:04:53.746Z,20.67
2017-09-17T13:05:53.745Z,20.66